METAR Data
IDs: Format: Raw Decoded Include TAF

Data at: 1453 UTC 18 Aug 2019

PACD 181425Z AUTO 04007KT 3/4SM BR VV002 12/11 A3015 RMK AO2 T01220111 TSNO
PACD 181419Z AUTO 05009KT 2 1/2SM BR SCT002 12/11 A3014 RMK AO2 T01220111 TSNO
PACD 181353Z AUTO 05003KT 10SM CLR 11/11 A3015 RMK AO2 SLP208 T01110106 TSNO
PACD 181253Z AUTO 09003KT 10SM FEW003 13/13 A3016 RMK AO2 SLP214 T01330128 TSNO
PACD 181232Z AUTO 06008KT 10SM FEW004 13/12 A3017 RMK AO2 T01330122 TSNO
PACD 181153Z AUTO 36005KT 10SM CLR 12/11 A3017 RMK AO2 SLP217 T01220111 10150 20122 58022 TSNO
PACD 181115Z AUTO 02008KT 10SM SCT009 14/13 A3018 RMK AO2 T01390128 TSNO
PACD 181053Z AUTO 34007KT 10SM BKN010 14/13 A3019 RMK AO2 SLP225 T01390128 TSNO
PACD 181044Z AUTO 33008KT 10SM BKN010 14/13 A3020 RMK AO2 T01390128 TSNO
PACD 180953Z AUTO 33012KT 10SM OVC007 14/13 A3021 RMK AO2 SLP232 T01440128 TSNO
PACD 180853Z AUTO 34010KT 10SM OVC005 14/12 A3024 RMK AO2 SLP239 T01390122 402000128 58001 TSNO
PACD 180822Z AUTO 35006G14KT 10SM OVC005 14/13 A3024 RMK AO2 T01390133 TSNO
PACD 180753Z AUTO 36012G19KT 10SM OVC004 14/13 A3025 RMK AO2 SLP243 T01390128 TSNO
PACD 180724Z AUTO 35015G23KT 10SM BKN004 14/13 A3024 RMK AO2 T01390128 TSNO
PACD 180715Z AUTO 35017G23KT 10SM SCT004 14/13 A3025 RMK AO2 T01390128 TSNO
PACD 180653Z AUTO 36020KT 10SM CLR 14/13 A3024 RMK AO2 PK WND 35026/0651 SLP240 T01390128 TSNO
PACD 180553Z AUTO 35020G26KT 10SM CLR 15/13 A3024 RMK AO2 PK WND 36028/0523 SLP240 T01500128 10200 20150 56009 TSNO
PACD 180453Z AUTO 36020G29KT 10SM CLR 16/13 A3024 RMK AO2 PK WND 01029/0405 SLP240 T01610133 TSNO
PACD 180353Z AUTO 36021G28KT 10SM CLR 18/14 A3025 RMK AO2 PK WND 35029/0330 SLP245 T01780139 TSNO
PACD 180253Z AUTO 01017G27KT 10SM CLR 18/14 A3026 RMK AO2 PK WND 36029/0155 SLP249 T01830139 58015 TSNO
PACD 180153Z AUTO 36022G28KT 10SM CLR 19/14 A3028 RMK AO2 PK WND 36029/0101 SLP254 T01890139 TSNO
PACD 180053Z 35021G26KT 10SM FEW020 19/14 A3030 RMK AO2 PK WND 35028/0023 SLP260 T01940139
PACD 172353Z 35022G27KT 10SM FEW020 19/13 A3031 RMK AO2 PK WND 35030/2316 SLP264 T01940133 10194 20156 58022
PACD 172253Z 36019G28KT 10SM CLR 19/13 A3033 RMK AO2 PK WND 35028/2248 SLP272 T01940133
PACD 172153Z 35017G26KT 10SM FEW020 19/13 A3035 RMK AO2 PK WND 36028/2128 SLP279 T01940133
PACD 172053Z 35017G23KT 10SM FEW014 18/13 A3038 RMK AO2 SLP286 T01830128 58009
PACD 171953Z 35016G24KT 10SM FEW014 17/13 A3039 RMK AO2 PK WND 36029/1855 SLP291 T01720128
PACD 171853Z 36022G30KT 10SM FEW010 16/12 A3039 RMK AO2 PK WND 35030/1848 SLP293 T01610117
PACD 171753Z 35017G21KT 10SM FEW010 16/12 A3040 RMK AO2 SLP296 T01560122 10156 20133 58008
PACD 171653Z 34015KT 10SM FEW010 14/12 A3041 RMK AO2 SLP299 T01440122
PACD 171553Z AUTO 34011KT 10SM CLR 13/12 A3042 RMK AO2 SLP302 T01330117 TSNO
PACD 171453Z AUTO 33013KT 10SM CLR 13/11 A3043 RMK AO2 SLP304 T01330111 58006 TSNO
PACD 171353Z AUTO 34009G17KT 10SM CLR 13/11 A3044 RMK AO2 SLP309 T01330111 TSNO
PACD 171253Z AUTO 34010KT 10SM CLR 13/11 A3045 RMK AO2 SLP310 T01330111 TSNO
PACD 171153Z AUTO 34014G19KT 10SM CLR 13/11 A3045 RMK AO2 SLP310 T01330111 10150 20128 58004 TSNO
PACD 171053Z AUTO 35010G14KT 10SM CLR 13/12 A3046 RMK AO2 SLP313 T01330117 TSNO
PACD 170953Z AUTO VRB04KT 10SM CLR 13/12 A3046 RMK AO2 SLP316 T01330117 TSNO
PACD 170853Z AUTO VRB03KT 10SM CLR 13/11 A3046 RMK AO2 SLP314 T01330111 401940100 58005 TSNO
PACD 170753Z AUTO 27006KT 10SM CLR 14/12 A3047 RMK AO2 SLP318 T01390117 TSNO
PACD 170653Z AUTO VRB04KT 10SM CLR 14/12 A3047 RMK AO2 SLP319 T01390117 TSNO
PACD 170553Z AUTO 33009KT 9SM CLR 15/12 A3047 RMK AO2 SLP320 T01500122 10194 20150 56008 TSNO
PACD 170453Z AUTO 34012KT 10SM CLR 17/12 A3048 RMK AO2 SLP322 T01670122 TSNO
PACD 170353Z AUTO 34014KT 10SM CLR 17/12 A3049 RMK AO2 SLP325 T01720122 TSNO